Time;durP1;ratioP1;P1;durP2;ratioP2;P2;SDS_P1;SDS_P2;PMS_P1;PMS_P2;Temp;Humidity;BMP_temperature;BMP_pressure;BME280_temperature;BME280_humidity;BME280_pressure;Samples;Min_cycle;Max_cycle;Signal;HPM_P1;HPM_P2
2023/12/25 00:00:13;;;;;;;1.13;0.70;;;13.00;99.90;;;;;;5051652;28;20053;-67
2023/12/25 00:02:39;;;;;;;1.10;0.60;;;12.90;99.90;;;;;;5052267;28;20033;-66
2023/12/25 00:05:05;;;;;;;1.10;0.60;;;13.00;99.90;;;;;;5051969;28;20036;-68
2023/12/25 00:07:30;;;;;;;0.93;0.65;;;13.00;99.90;;;;;;5052361;28;20523;-67
2023/12/25 00:09:56;;;;;;;1.38;0.63;;;13.00;99.90;;;;;;5052387;28;20029;-66
2023/12/25 00:12:23;;;;;;;0.70;0.60;;;13.00;99.90;;;;;;5052073;28;20488;-66
2023/12/25 00:14:48;;;;;;;1.05;0.60;;;13.10;99.90;;;;;;5051971;28;20093;-66
2023/12/25 00:17:15;;;;;;;1.27;0.70;;;13.10;99.90;;;;;;5050454;28;20159;-66
2023/12/25 00:19:41;;;;;;;0.63;0.60;;;13.00;99.90;;;;;;5068997;28;20028;-66
2023/12/25 00:22:06;;;;;;;2.95;1.13;;;13.00;99.90;;;;;;5071698;28;20078;-66
2023/12/25 00:24:32;;;;;;;1.08;0.50;;;13.00;99.90;;;;;;5055198;28;20392;-67
2023/12/25 00:26:57;;;;;;;3.22;0.70;;;13.00;99.90;;;;;;5052729;28;20446;-67
2023/12/25 00:29:23;;;;;;;0.93;0.60;;;13.00;99.90;;;;;;5052540;28;20056;-67
2023/12/25 00:31:49;;;;;;;0.68;0.45;;;13.00;99.90;;;;;;5052163;28;20021;-66
2023/12/25 00:34:15;;;;;;;0.70;0.70;;;13.00;99.90;;;;;;5051756;28;20028;-67
2023/12/25 00:36:40;;;;;;;2.72;0.55;;;13.00;99.90;;;;;;5051868;28;20128;-66
2023/12/25 00:39:06;;;;;;;1.17;0.60;;;13.00;99.90;;;;;;5051485;28;20108;-70
2023/12/25 00:41:32;;;;;;;1.23;0.80;;;13.00;99.80;;;;;;5051965;28;20025;-67
2023/12/25 00:43:58;;;;;;;1.45;0.70;;;13.00;99.80;;;;;;5051888;28;20438;-67
2023/12/25 00:46:24;;;;;;;0.80;0.60;;;13.00;99.70;;;;;;5051541;28;20461;-67
2023/12/25 00:48:49;;;;;;;0.82;0.40;;;13.00;99.50;;;;;;5051499;28;20029;-67
2023/12/25 00:51:15;;;;;;;0.50;0.50;;;13.10;99.20;;;;;;5051403;28;20025;-67
2023/12/25 00:53:40;;;;;;;1.60;0.60;;;13.10;99.00;;;;;;5051680;28;20040;-66
2023/12/25 00:56:08;;;;;;;0.60;0.50;;;13.10;99.00;;;;;;5052023;28;20021;-67
2023/12/25 00:58:34;;;;;;;1.15;0.70;;;13.10;98.80;;;;;;5049961;28;20048;-66
2023/12/25 01:01:00;;;;;;;1.30;0.68;;;13.20;98.80;;;;;;5051876;28;20092;-66
2023/12/25 01:03:25;;;;;;;1.25;0.70;;;13.20;98.70;;;;;;5051289;28;20037;-67
2023/12/25 01:05:51;;;;;;;0.85;0.45;;;13.20;98.50;;;;;;5051681;28;20096;-66
2023/12/25 01:08:16;;;;;;;0.52;0.50;;;13.20;98.30;;;;;;5051358;28;20116;-67
2023/12/25 01:10:42;;;;;;;1.52;0.60;;;13.30;97.80;;;;;;5050344;28;20381;-66
2023/12/25 01:13:08;;;;;;;3.70;1.80;;;13.30;97.80;;;;;;5051523;28;20041;-66
2023/12/25 01:15:34;;;;;;;0.55;0.50;;;13.30;97.70;;;;;;5049934;28;20057;-67
2023/12/25 01:17:59;;;;;;;1.85;0.65;;;13.30;97.80;;;;;;5051204;28;20343;-67
2023/12/25 01:20:25;;;;;;;0.70;0.50;;;13.30;97.70;;;;;;5050682;28;20040;-67
2023/12/25 01:22:51;;;;;;;1.23;0.70;;;13.40;97.50;;;;;;5051094;28;20477;-65
2023/12/25 01:25:16;;;;;;;1.55;0.70;;;13.40;97.50;;;;;;5051090;28;20105;-67
2023/12/25 01:27:42;;;;;;;1.75;0.55;;;13.40;97.50;;;;;;5051191;28;20033;-67
2023/12/25 01:30:10;;;;;;;1.00;0.65;;;13.40;97.50;;;;;;5051754;28;20032;-67
2023/12/25 01:32:35;;;;;;;1.05;0.65;;;13.40;97.40;;;;;;5055158;28;20389;-67
2023/12/25 01:35:01;;;;;;;3.15;0.90;;;13.40;97.30;;;;;;5054975;28;20028;-67
2023/12/25 01:37:26;;;;;;;1.33;0.60;;;13.40;97.40;;;;;;5055082;28;20029;-65
2023/12/25 01:39:52;;;;;;;1.10;0.57;;;13.40;97.30;;;;;;5055130;28;20516;-66
2023/12/25 01:42:18;;;;;;;1.38;0.40;;;13.40;97.30;;;;;;5054405;28;20032;-66
2023/12/25 01:44:46;;;;;;;1.92;0.60;;;13.40;97.30;;;;;;5055190;28;20056;-66
2023/12/25 01:47:13;;;;;;;1.02;0.70;;;13.40;97.10;;;;;;5054632;28;20114;-68
2023/12/25 01:49:38;;;;;;;1.15;0.60;;;13.40;97.00;;;;;;5054652;28;20074;-66
2023/12/25 01:52:04;;;;;;;0.80;0.50;;;13.40;97.00;;;;;;5055166;28;20045;-65
2023/12/25 01:54:32;;;;;;;0.95;0.60;;;13.40;96.80;;;;;;5054319;28;20029;-67
2023/12/25 01:56:58;;;;;;;2.53;0.85;;;13.40;96.70;;;;;;5054801;28;20063;-67
2023/12/25 01:59:28;;;;;;;1.23;0.60;;;13.40;96.50;;;;;;5054270;28;20056;-66
2023/12/25 02:01:54;;;;;;;1.92;0.85;;;13.40;96.40;;;;;;5054596;28;20057;-66
2023/12/25 02:04:19;;;;;;;2.17;0.60;;;13.40;96.20;;;;;;5053944;28;20112;-66
2023/12/25 02:06:46;;;;;;;1.75;0.70;;;13.40;96.10;;;;;;5054664;28;20096;-67
2023/12/25 02:09:13;;;;;;;1.23;0.40;;;13.50;96.00;;;;;;5054475;28;20024;-66
2023/12/25 02:11:42;;;;;;;1.45;0.57;;;13.50;95.90;;;;;;5054404;28;20436;-66
2023/12/25 02:14:09;;;;;;;1.08;0.40;;;13.50;95.50;;;;;;5054336;28;20120;-66
2023/12/25 02:16:36;;;;;;;1.58;0.60;;;13.60;95.30;;;;;;5054262;28;20075;-66
2023/12/25 02:19:05;;;;;;;1.58;0.80;;;13.60;95.20;;;;;;5062705;28;20411;-66
2023/12/25 02:21:31;;;;;;;1.00;0.40;;;13.60;95.10;;;;;;5073871;28;20048;-67
2023/12/25 02:24:01;;;;;;;1.40;0.60;;;13.60;95.00;;;;;;5073825;28;20480;-67
2023/12/25 02:26:27;;;;;;;0.90;0.52;;;13.60;94.80;;;;;;5056137;28;20108;-66
2023/12/25 02:28:52;;;;;;;2.10;0.45;;;13.60;94.80;;;;;;5054160;28;20482;-66
2023/12/25 02:31:18;;;;;;;1.80;0.70;;;13.60;94.60;;;;;;5053311;28;20074;-66
2023/12/25 02:33:43;;;;;;;1.83;0.60;;;13.60;94.50;;;;;;5053719;28;20071;-66
2023/12/25 02:36:09;;;;;;;1.67;0.50;;;13.70;94.50;;;;;;5053753;28;20092;-66
2023/12/25 02:38:35;;;;;;;0.88;0.57;;;13.70;94.40;;;;;;5053458;28;20115;-66
2023/12/25 02:41:00;;;;;;;3.92;0.70;;;13.70;94.40;;;;;;5053547;28;20029;-67
2023/12/25 02:43:26;;;;;;;1.15;0.57;;;13.70;94.20;;;;;;5052465;28;20159;-66
2023/12/25 02:45:51;;;;;;;0.88;0.40;;;13.70;94.00;;;;;;5053864;28;20025;-66
2023/12/25 02:48:18;;;;;;;0.65;0.50;;;13.70;93.90;;;;;;5053561;28;20454;-68
2023/12/25 02:50:44;;;;;;;0.80;0.50;;;13.70;93.80;;;;;;5053765;28;20029;-66
2023/12/25 02:53:10;;;;;;;0.85;0.55;;;13.70;93.70;;;;;;5053648;28;20116;-67
2023/12/25 02:55:35;;;;;;;0.88;0.45;;;13.70;93.70;;;;;;5053214;28;20670;-67
2023/12/25 02:58:01;;;;;;;1.70;0.50;;;13.70;93.40;;;;;;5053689;28;20083;-67
2023/12/25 03:00:26;;;;;;;5.43;0.60;;;13.70;93.20;;;;;;5053334;28;20053;-67
2023/12/25 03:02:52;;;;;;;1.05;0.55;;;13.70;93.00;;;;;;5053630;28;20474;-66
2023/12/25 03:05:18;;;;;;;1.13;0.43;;;13.70;92.60;;;;;;5053098;28;20432;-66
2023/12/25 03:07:43;;;;;;;0.73;0.50;;;13.70;92.50;;;;;;5053218;28;20112;-66
2023/12/25 03:10:09;;;;;;;0.93;0.40;;;13.70;92.00;;;;;;5053150;28;20370;-66
2023/12/25 03:12:34;;;;;;;1.08;0.70;;;13.80;91.90;;;;;;5052478;28;20040;-67
2023/12/25 03:15:00;;;;;;;0.63;0.60;;;13.80;91.80;;;;;;5053143;28;20025;-65
2023/12/25 03:17:26;;;;;;;1.65;0.70;;;13.70;91.80;;;;;;5052868;28;20078;-66
2023/12/25 03:19:51;;;;;;;1.13;1.02;;;13.80;91.40;;;;;;5052930;28;20029;-66
2023/12/25 03:22:17;;;;;;;1.33;0.60;;;13.80;91.00;;;;;;5053353;28;20029;-66
2023/12/25 03:24:42;;;;;;;0.88;0.50;;;13.80;90.80;;;;;;5052124;28;20029;-66
2023/12/25 03:27:08;;;;;;;1.48;0.60;;;13.80;90.70;;;;;;5053161;28;20488;-66
2023/12/25 03:29:33;;;;;;;0.75;0.43;;;13.80;90.40;;;;;;5052705;28;20040;-66
2023/12/25 03:31:59;;;;;;;0.65;0.43;;;13.80;90.40;;;;;;5052955;28;20033;-66
2023/12/25 03:34:25;;;;;;;0.95;0.50;;;13.80;90.00;;;;;;5052379;28;20025;-66
2023/12/25 03:36:50;;;;;;;1.13;0.50;;;13.80;90.00;;;;;;5052944;28;20552;-66
2023/12/25 03:39:16;;;;;;;0.55;0.55;;;13.80;89.50;;;;;;5052877;28;20025;-67
2023/12/25 03:41:42;;;;;;;2.40;0.70;;;13.80;89.00;;;;;;5052418;28;20025;-66
2023/12/25 03:44:07;;;;;;;1.17;0.47;;;13.90;89.00;;;;;;5052661;28;20108;-67
2023/12/25 03:46:33;;;;;;;1.00;0.50;;;13.80;88.70;;;;;;5050990;28;20025;-67
2023/12/25 03:48:58;;;;;;;0.80;0.50;;;13.80;88.50;;;;;;5052621;28;20059;-66
2023/12/25 03:51:24;;;;;;;1.20;0.55;;;13.90;87.90;;;;;;5052316;28;20025;-66
2023/12/25 03:53:50;;;;;;;1.02;0.50;;;13.90;87.40;;;;;;5052441;28;20071;-67
2023/12/25 03:56:17;;;;;;;1.63;0.70;;;13.90;86.80;;;;;;5052292;28;20037;-65
2023/12/25 03:58:42;;;;;;;1.08;0.50;;;13.90;86.70;;;;;;5051818;28;20032;-66
2023/12/25 04:01:08;;;;;;;1.35;0.75;;;13.90;86.40;;;;;;5052518;28;20025;-66
2023/12/25 04:03:34;;;;;;;0.52;0.38;;;13.90;86.30;;;;;;5051942;28;20420;-66
2023/12/25 04:05:59;;;;;;;0.50;0.43;;;13.90;85.60;;;;;;5052075;28;20025;-66
2023/12/25 04:08:25;;;;;;;0.80;0.50;;;13.90;85.20;;;;;;5051622;28;20047;-66
2023/12/25 04:10:50;;;;;;;1.23;0.50;;;14.00;84.80;;;;;;5051901;28;20025;-65
2023/12/25 04:13:16;;;;;;;2.28;0.57;;;14.00;84.10;;;;;;5052141;28;20033;-65
2023/12/25 04:15:42;;;;;;;1.00;0.55;;;14.00;83.70;;;;;;5050397;28;20401;-66
2023/12/25 04:18:07;;;;;;;0.68;0.45;;;14.00;83.40;;;;;;5051742;28;20082;-66
2023/12/25 04:20:33;;;;;;;1.08;0.50;;;14.00;83.30;;;;;;5051973;28;20425;-66
2023/12/25 04:22:59;;;;;;;0.88;0.50;;;14.00;83.30;;;;;;5051937;28;20076;-66
2023/12/25 04:25:25;;;;;;;0.40;0.30;;;14.00;83.20;;;;;;5051583;28;20131;-65
2023/12/25 04:27:51;;;;;;;1.08;0.47;;;14.00;83.00;;;;;;5052905;28;20506;-67
2023/12/25 04:30:17;;;;;;;0.50;0.40;;;14.00;83.00;;;;;;5067569;28;20385;-67
2023/12/25 04:32:42;;;;;;;1.77;0.60;;;14.10;83.00;;;;;;5071631;28;20033;-67
2023/12/25 04:35:08;;;;;;;1.35;0.45;;;14.00;83.10;;;;;;5072043;28;20025;-66
2023/12/25 04:37:34;;;;;;;0.77;0.43;;;14.00;83.00;;;;;;5071469;28;20028;-66
2023/12/25 04:39:59;;;;;;;1.02;0.50;;;14.00;83.20;;;;;;5072087;28;20078;-66
2023/12/25 04:42:25;;;;;;;0.80;0.60;;;14.00;83.40;;;;;;5071321;28;20426;-67
2023/12/25 04:44:51;;;;;;;0.40;0.40;;;14.00;83.30;;;;;;5071908;28;20129;-66
2023/12/25 04:47:16;;;;;;;0.52;0.50;;;14.00;83.60;;;;;;5071954;28;20025;-66
2023/12/25 04:49:42;;;;;;;0.40;0.40;;;14.00;83.60;;;;;;5071482;28;20029;-66
2023/12/25 04:52:07;;;;;;;0.40;0.40;;;14.00;83.70;;;;;;5071865;28;20024;-66
2023/12/25 04:54:33;;;;;;;0.95;0.45;;;14.00;83.70;;;;;;5071485;28;20048;-66
2023/12/25 04:56:59;;;;;;;1.95;0.50;;;14.00;83.90;;;;;;5071855;28;20028;-65
2023/12/25 04:59:24;;;;;;;2.08;0.57;;;14.00;83.90;;;;;;5071421;28;20052;-65
2023/12/25 05:01:50;;;;;;;0.30;0.30;;;14.00;84.00;;;;;;5071742;28;20021;-66
2023/12/25 05:04:16;;;;;;;0.40;0.40;;;14.00;84.20;;;;;;5072017;28;20040;-66
2023/12/25 05:06:41;;;;;;;0.98;0.50;;;14.00;83.90;;;;;;5074700;28;20103;-67
2023/12/25 05:09:08;;;;;;;0.63;0.35;;;14.00;83.80;;;;;;5076168;28;20377;-67
2023/12/25 05:11:34;;;;;;;1.48;0.43;;;14.00;84.00;;;;;;5075825;28;20033;-67
2023/12/25 05:14:00;;;;;;;0.80;0.50;;;13.90;84.00;;;;;;5075958;28;20123;-67
2023/12/25 05:16:26;;;;;;;1.75;0.40;;;14.00;84.10;;;;;;5075984;28;20108;-67
2023/12/25 05:18:51;;;;;;;1.15;0.70;;;13.90;83.90;;;;;;5076309;28;20047;-67
2023/12/25 05:21:17;;;;;;;0.63;0.40;;;13.90;83.80;;;;;;5075455;28;20032;-67
2023/12/25 05:23:43;;;;;;;0.88;0.40;;;13.90;83.70;;;;;;5063905;28;20470;-66
2023/12/25 05:26:09;;;;;;;1.55;0.40;;;13.90;83.80;;;;;;5055675;28;20112;-66
2023/12/25 05:28:35;;;;;;;0.40;0.40;;;13.80;84.20;;;;;;5054947;28;20041;-66
2023/12/25 05:31:00;;;;;;;0.40;0.40;;;13.80;84.50;;;;;;5055212;28;20024;-67
2023/12/25 05:33:26;;;;;;;0.63;0.50;;;13.80;84.70;;;;;;5055024;28;20033;-66
2023/12/25 05:35:52;;;;;;;1.05;0.50;;;13.80;85.00;;;;;;5054755;28;20048;-66
2023/12/25 05:38:17;;;;;;;0.85;0.40;;;13.70;84.90;;;;;;5055187;28;20170;-66
2023/12/25 05:40:43;;;;;;;2.45;0.52;;;13.70;84.80;;;;;;5054811;28;20021;-66
2023/12/25 05:43:10;;;;;;;0.75;0.43;;;13.80;84.40;;;;;;5055421;28;20404;-66
2023/12/25 05:45:37;;;;;;;1.05;0.50;;;13.70;83.80;;;;;;5054623;28;20107;-67
2023/12/25 05:48:03;;;;;;;0.63;0.40;;;13.70;83.20;;;;;;5053764;28;20029;-66
2023/12/25 05:50:29;;;;;;;0.75;0.45;;;13.80;82.30;;;;;;5054537;28;20032;-68
2023/12/25 05:52:55;;;;;;;0.65;0.40;;;13.80;81.40;;;;;;5036965;28;20465;-68
2023/12/25 05:55:20;;;;;;;0.30;0.30;;;13.80;80.20;;;;;;5054945;28;20111;-66
2023/12/25 05:57:47;;;;;;;1.55;0.40;;;13.80;80.10;;;;;;5054187;28;20056;-66
2023/12/25 06:00:13;;;;;;;1.00;0.52;;;13.80;79.90;;;;;;5054274;28;20053;-67
2023/12/25 06:02:39;;;;;;;2.38;0.55;;;13.80;79.90;;;;;;5054185;28;20028;-66
2023/12/25 06:05:05;;;;;;;2.30;0.50;;;13.80;79.70;;;;;;5054230;28;20087;-66
2023/12/25 06:07:30;;;;;;;0.52;0.50;;;13.80;78.90;;;;;;5054386;28;20029;-70
2023/12/25 06:09:56;;;;;;;1.35;0.30;;;13.80;79.00;;;;;;5054599;28;20124;-67
2023/12/25 06:12:21;;;;;;;0.68;0.50;;;13.80;78.90;;;;;;5054115;28;20037;-66
2023/12/25 06:14:47;;;;;;;1.30;0.50;;;13.70;78.70;;;;;;5053806;28;20057;-66
2023/12/25 06:17:13;;;;;;;0.32;0.30;;;13.70;78.40;;;;;;5052942;28;20053;-66
2023/12/25 06:19:38;;;;;;;1.45;0.65;;;13.70;78.40;;;;;;5053778;28;20025;-66
2023/12/25 06:22:04;;;;;;;0.45;0.43;;;13.70;78.50;;;;;;5054274;28;20186;-66
2023/12/25 06:24:29;;;;;;;0.73;0.50;;;13.70;78.20;;;;;;5052469;28;20432;-66
2023/12/25 06:26:55;;;;;;;1.38;0.50;;;13.60;78.30;;;;;;5062340;28;20027;-66
2023/12/25 06:29:21;;;;;;;2.45;0.60;;;13.60;78.50;;;;;;5073771;28;20035;-66
2023/12/25 06:31:47;;;;;;;1.40;0.60;;;13.60;78.40;;;;;;5073631;28;20028;-67
2023/12/25 06:34:12;;;;;;;0.80;0.47;;;13.60;78.40;;;;;;5074042;28;20380;-65
2023/12/25 06:36:38;;;;;;;0.45;0.45;;;13.60;78.20;;;;;;5073588;28;20032;-67
2023/12/25 06:39:03;;;;;;;0.22;0.22;;;13.60;78.40;;;;;;5073983;28;20523;-67
2023/12/25 06:41:29;;;;;;;1.65;0.50;;;13.50;78.30;;;;;;5073962;28;20035;-67
2023/12/25 06:43:54;;;;;;;0.40;0.32;;;13.60;78.80;;;;;;5073197;28;20032;-66
2023/12/25 06:46:20;;;;;;;1.45;0.50;;;13.60;78.70;;;;;;5073821;28;20050;-66
2023/12/25 06:48:46;;;;;;;0.57;0.40;;;13.60;78.40;;;;;;5073420;28;20077;-67
2023/12/25 06:51:11;;;;;;;0.55;0.45;;;13.50;77.90;;;;;;5073486;28;20020;-67
2023/12/25 06:53:37;;;;;;;2.83;0.40;;;13.60;77.40;;;;;;5073134;28;20032;-66
2023/12/25 06:56:03;;;;;;;1.67;0.60;;;13.60;76.60;;;;;;5073613;28;20107;-67
2023/12/25 06:58:29;;;;;;;0.40;0.40;;;13.60;76.10;;;;;;5073352;28;20032;-67
2023/12/25 07:00:55;;;;;;;2.97;0.50;;;13.60;75.90;;;;;;5073140;28;20077;-66
2023/12/25 07:03:20;;;;;;;1.63;0.63;;;13.60;76.00;;;;;;5072115;28;20035;-67
2023/12/25 07:05:48;;;;;;;2.50;0.60;;;13.60;75.50;;;;;;5071722;28;20030;-67
2023/12/25 07:08:14;;;;;;;0.50;0.50;;;13.60;75.30;;;;;;5073405;28;20021;-66
2023/12/25 07:10:39;;;;;;;1.05;0.70;;;13.60;74.70;;;;;;5073018;28;20362;-66
2023/12/25 07:13:05;;;;;;;0.50;0.50;;;13.60;74.70;;;;;;5073096;28;20033;-67
2023/12/25 07:15:33;;;;;;;1.30;0.50;;;13.60;74.30;;;;;;5073071;28;20461;-66
2023/12/25 07:17:58;;;;;;;1.13;0.60;;;13.60;74.10;;;;;;5072800;28;20086;-66
2023/12/25 07:20:24;;;;;;;0.60;0.50;;;13.60;74.00;;;;;;5073089;28;20032;-67
2023/12/25 07:22:50;;;;;;;1.27;0.60;;;13.60;73.30;;;;;;5071048;28;20037;-66
2023/12/25 07:25:15;;;;;;;0.90;0.52;;;13.70;72.90;;;;;;5065675;28;20028;-66
2023/12/25 07:27:41;;;;;;;0.82;0.40;;;13.70;73.00;;;;;;5052090;28;20021;-66
2023/12/25 07:30:07;;;;;;;0.55;0.40;;;13.70;72.60;;;;;;5052877;28;20521;-67
2023/12/25 07:32:32;;;;;;;0.50;0.40;;;13.80;72.20;;;;;;5052910;28;20040;-66
2023/12/25 07:34:58;;;;;;;0.75;0.50;;;13.80;72.00;;;;;;5052390;28;20393;-66
2023/12/25 07:37:24;;;;;;;2.30;0.50;;;13.80;71.50;;;;;;5052746;28;20462;-66
2023/12/25 07:39:49;;;;;;;1.13;0.60;;;13.80;71.20;;;;;;5052045;28;20029;-67
2023/12/25 07:42:15;;;;;;;0.45;0.43;;;13.80;71.20;;;;;;5052647;28;20048;-66
2023/12/25 07:44:42;;;;;;;0.88;0.50;;;13.80;71.20;;;;;;5052051;28;20391;-66
2023/12/25 07:47:07;;;;;;;0.93;0.50;;;13.80;70.90;;;;;;5052567;28;20029;-66
2023/12/25 07:49:33;;;;;;;2.58;0.40;;;13.80;70.50;;;;;;5052646;28;20095;-66
2023/12/25 07:51:59;;;;;;;0.60;0.50;;;13.90;70.50;;;;;;5051918;28;20017;-67
2023/12/25 07:54:24;;;;;;;1.30;0.60;;;13.90;70.40;;;;;;5052344;28;20040;-66
2023/12/25 07:56:50;;;;;;;0.80;0.60;;;13.90;70.10;;;;;;5051998;28;20044;-66
2023/12/25 07:59:18;;;;;;;2.15;0.63;;;13.90;69.80;;;;;;5052206;28;20075;-66
2023/12/25 08:01:43;;;;;;;1.20;0.60;;;13.90;68.30;;;;;;5051884;28;20331;-66
2023/12/25 08:04:09;;;;;;;2.58;0.60;;;14.00;67.70;;;;;;5052320;28;20103;-66
2023/12/25 08:06:34;;;;;;;1.15;0.63;;;14.00;67.00;;;;;;5040978;28;20053;-66
2023/12/25 08:09:00;;;;;;;1.13;0.45;;;14.10;66.10;;;;;;5042092;28;20078;-67
2023/12/25 08:11:27;;;;;;;1.50;1.00;;;14.10;66.00;;;;;;5040545;28;20026;-66
2023/12/25 08:13:53;;;;;;;0.40;0.40;;;14.10;65.30;;;;;;5041141;28;20029;-66
2023/12/25 08:16:18;;;;;;;0.70;0.50;;;14.20;64.80;;;;;;5037285;28;20033;-66
2023/12/25 08:18:44;;;;;;;0.60;0.50;;;14.20;64.40;;;;;;5044335;28;20048;-66
2023/12/25 08:21:11;;;;;;;1.20;0.70;;;14.20;64.50;;;;;;5038038;28;20037;-66
2023/12/25 08:23:36;;;;;;;4.00;0.60;;;14.20;64.50;;;;;;5036060;28;20037;-66
2023/12/25 08:26:02;;;;;;;0.60;0.57;;;14.30;64.90;;;;;;5048691;28;20025;-66
2023/12/25 08:28:27;;;;;;;2.28;0.57;;;14.30;65.10;;;;;;5046268;28;20364;-67
2023/12/25 08:30:53;;;;;;;0.98;0.63;;;14.30;65.30;;;;;;5032306;28;20080;-66
2023/12/25 08:33:18;;;;;;;0.63;0.63;;;14.20;65.40;;;;;;5046507;28;20059;-67
2023/12/25 08:35:45;;;;;;;0.98;0.65;;;14.20;65.40;;;;;;5049997;28;20032;-66
2023/12/25 08:38:11;;;;;;;2.42;0.57;;;14.20;65.50;;;;;;5043519;28;20536;-66
2023/12/25 08:40:37;;;;;;;1.20;0.70;;;14.20;65.20;;;;;;5031207;28;20033;-66
2023/12/25 08:43:02;;;;;;;2.15;0.65;;;14.20;65.20;;;;;;5036211;28;20087;-66
2023/12/25 08:45:28;;;;;;;0.80;0.50;;;14.20;65.50;;;;;;5042496;28;20052;-68
2023/12/25 08:47:53;;;;;;;1.85;0.70;;;14.20;65.60;;;;;;5031302;28;20305;-66
2023/12/25 08:50:19;;;;;;;1.70;0.50;;;14.20;65.70;;;;;;5032090;28;20026;-68
2023/12/25 08:52:45;;;;;;;0.90;0.70;;;14.20;65.60;;;;;;5037107;28;20102;-69
2023/12/25 08:55:11;;;;;;;3.00;1.33;;;14.20;65.50;;;;;;5051447;28;20025;-69
2023/12/25 08:57:37;;;;;;;1.52;0.70;;;14.20;65.50;;;;;;5051388;28;20037;-68
2023/12/25 09:00:06;;;;;;;0.88;0.55;;;14.20;65.60;;;;;;5051269;28;20085;-69
2023/12/25 09:02:32;;;;;;;1.65;0.60;;;14.20;65.40;;;;;;5051753;28;20119;-75
2023/12/25 09:04:58;;;;;;;1.60;0.77;;;14.20;65.40;;;;;;5051249;28;20101;-83
2023/12/25 09:07:23;;;;;;;0.68;0.55;;;14.20;65.70;;;;;;5051368;28;20021;-70
2023/12/25 09:09:49;;;;;;;1.85;0.50;;;14.30;65.70;;;;;;5051041;28;20021;-70
2023/12/25 09:12:15;;;;;;;1.98;0.57;;;14.30;65.50;;;;;;5051620;28;20081;-72
2023/12/25 09:14:40;;;;;;;0.95;0.50;;;14.30;64.90;;;;;;5051304;28;20029;-69
2023/12/25 09:17:06;;;;;;;2.72;0.65;;;14.30;64.50;;;;;;5051146;28;20025;-67
2023/12/25 09:19:32;;;;;;;1.20;0.50;;;14.30;64.40;;;;;;5051547;28;20021;-69
2023/12/25 09:21:58;;;;;;;0.93;0.60;;;14.30;64.50;;;;;;5050842;28;20025;-68
2023/12/25 09:24:24;;;;;;;1.02;0.63;;;14.30;64.80;;;;;;5051551;28;20043;-70
2023/12/25 09:26:51;;;;;;;1.92;0.75;;;14.20;65.50;;;;;;5050881;28;20406;-67
2023/12/25 09:29:17;;;;;;;0.90;0.60;;;14.20;66.30;;;;;;5051711;28;20032;-66
2023/12/25 09:31:42;;;;;;;2.25;0.80;;;14.30;67.20;;;;;;5050087;28;20477;-64
2023/12/25 09:34:08;;;;;;;0.55;0.55;;;14.30;67.40;;;;;;5051139;28;20059;-65
2023/12/25 09:36:34;;;;;;;1.67;0.60;;;14.30;68.40;;;;;;5051351;28;20025;-65
2023/12/25 09:38:59;;;;;;;0.82;0.60;;;14.30;69.40;;;;;;5051217;28;20033;-67
2023/12/25 09:41:26;;;;;;;0.93;0.40;;;14.30;70.20;;;;;;5051376;28;20029;-64
2023/12/25 09:43:53;;;;;;;1.00;0.70;;;14.30;71.40;;;;;;5051265;28;20087;-68
2023/12/25 09:46:19;;;;;;;1.00;0.75;;;14.30;71.70;;;;;;5051245;28;20390;-65
2023/12/25 09:48:47;;;;;;;2.03;0.60;;;14.30;72.50;;;;;;5051199;28;20025;-67
2023/12/25 09:51:16;;;;;;;2.15;0.70;;;14.30;73.20;;;;;;5052345;28;20064;-65
2023/12/25 09:53:43;;;;;;;1.45;0.43;;;14.30;73.10;;;;;;5054862;28;20098;-65
2023/12/25 09:56:11;;;;;;;1.10;0.60;;;14.30;72.80;;;;;;5054388;28;20529;-65
2023/12/25 09:58:38;;;;;;;1.35;0.50;;;14.20;72.50;;;;;;5054600;28;20021;-65
2023/12/25 10:01:04;;;;;;;1.25;0.70;;;14.20;71.70;;;;;;5054501;28;20024;-65
2023/12/25 10:03:37;;;;;;;1.95;0.60;;;14.30;71.50;;;;;;5054870;28;20086;-64
2023/12/25 10:06:02;;;;;;;1.25;0.63;;;14.20;70.60;;;;;;5054775;28;20078;-63
2023/12/25 10:08:29;;;;;;;1.65;1.05;;;14.20;70.50;;;;;;5054785;28;20025;-63
2023/12/25 10:10:55;;;;;;;3.20;0.75;;;14.20;70.80;;;;;;5054781;28;20029;-66
2023/12/25 10:13:24;;;;;;;2.50;0.70;;;14.20;71.10;;;;;;5054786;28;20059;-65
2023/12/25 10:15:51;;;;;;;1.10;0.80;;;14.20;71.10;;;;;;5054236;28;20462;-69
2023/12/25 10:18:19;;;;;;;1.42;0.65;;;14.20;71.10;;;;;;5053066;28;20033;-65
2023/12/25 10:20:58;;;;;;;0.65;0.63;;;14.20;71.30;;;;;;5054555;28;20099;-65
2023/12/25 10:23:31;;;;;;;1.48;0.60;;;14.20;71.30;;;;;;5054614;28;20060;-65
2023/12/25 10:25:58;;;;;;;1.45;0.80;;;14.20;71.20;;;;;;5054195;28;20453;-64
2023/12/25 10:28:28;;;;;;;1.25;0.52;;;14.20;71.40;;;;;;5054486;28;20083;-64
2023/12/25 10:31:03;;;;;;;0.85;0.50;;;14.20;71.90;;;;;;5053768;28;20052;-65
2023/12/25 10:33:30;;;;;;;0.80;0.60;;;14.30;72.60;;;;;;5059557;28;20072;-65
2023/12/25 10:36:09;;;;;;;1.30;0.70;;;14.30;73.20;;;;;;5073587;28;20461;-64
2023/12/25 10:38:45;;;;;;;1.05;0.73;;;14.30;73.70;;;;;;5074569;28;20048;-65
2023/12/25 10:41:28;;;;;;;2.20;0.60;;;14.30;73.10;;;;;;5073902;28;20032;-66
2023/12/25 10:43:58;;;;;;;1.52;0.60;;;14.20;73.00;;;;;;5073905;28;20029;-67
2023/12/25 10:46:36;;;;;;;2.33;0.60;;;14.30;72.90;;;;;;5074066;28;20082;-65
2023/12/25 10:49:04;;;;;;;1.85;0.60;;;14.20;72.90;;;;;;5073836;28;20020;-65
2023/12/25 10:51:32;;;;;;;0.98;0.70;;;14.20;72.90;;;;;;5074075;28;20029;-65
2023/12/25 10:54:00;;;;;;;1.00;0.70;;;14.20;72.90;;;;;;5073631;28;20029;-66
2023/12/25 10:56:27;;;;;;;1.55;0.60;;;14.20;72.60;;;;;;5073977;28;20107;-65
2023/12/25 10:58:57;;;;;;;0.60;0.50;;;14.10;72.30;;;;;;5073849;28;20047;-65
2023/12/25 11:01:25;;;;;;;0.60;0.52;;;14.10;71.90;;;;;;5073678;28;20440;-66
2023/12/25 11:03:54;;;;;;;1.40;0.70;;;14.10;72.20;;;;;;5072942;28;20029;-64
2023/12/25 11:06:21;;;;;;;2.50;0.70;;;14.10;71.10;;;;;;5072940;28;20086;-64
2023/12/25 11:08:48;;;;;;;1.90;0.60;;;14.10;70.90;;;;;;5073403;28;20029;-66
2023/12/25 11:11:14;;;;;;;1.50;0.90;;;14.10;71.00;;;;;;5073100;28;20016;-63
2023/12/25 11:13:41;;;;;;;2.83;0.95;;;14.10;70.90;;;;;;5073140;28;20040;-65
2023/12/25 11:16:07;;;;;;;3.75;0.77;;;14.10;70.80;;;;;;5072931;28;20021;-66
2023/12/25 11:18:42;;;;;;;1.00;0.63;;;14.10;70.90;;;;;;5073218;28;20021;-64
2023/12/25 11:21:19;;;;;;;0.98;0.63;;;14.20;71.50;;;;;;5072829;28;20031;-65
2023/12/25 11:23:48;;;;;;;1.63;0.80;;;14.10;71.10;;;;;;5068846;28;20028;-65
2023/12/25 11:26:16;;;;;;;1.27;0.80;;;14.20;70.70;;;;;;5052183;28;20029;-65
2023/12/25 11:28:43;;;;;;;0.82;0.60;;;14.20;70.50;;;;;;5052905;28;20050;-64
2023/12/25 11:31:12;;;;;;;0.82;0.73;;;14.20;70.00;;;;;;5052534;28;20029;-65
2023/12/25 11:33:45;;;;;;;1.10;0.73;;;14.20;68.90;;;;;;5052417;28;20025;-65
2023/12/25 11:36:13;;;;;;;1.10;0.80;;;14.30;67.30;;;;;;5052010;28;20025;-65
2023/12/25 11:38:47;;;;;;;4.35;0.75;;;14.30;67.20;;;;;;5052479;28;20482;-66
2023/12/25 11:41:17;;;;;;;1.27;0.80;;;14.20;67.10;;;;;;5052662;28;20040;-64
2023/12/25 11:43:43;;;;;;;3.55;1.00;;;14.30;67.30;;;;;;5052618;28;20029;-67
2023/12/25 11:46:19;;;;;;;1.27;0.85;;;14.30;67.40;;;;;;5052185;28;20025;-67
2023/12/25 11:48:49;;;;;;;1.70;0.80;;;14.30;67.70;;;;;;5052670;28;20055;-68
2023/12/25 11:51:25;;;;;;;1.73;0.80;;;14.30;67.70;;;;;;5050660;28;20029;-68
2023/12/25 11:53:55;;;;;;;2.55;0.60;;;14.30;67.50;;;;;;5052498;28;20041;-67
2023/12/25 11:56:21;;;;;;;2.05;0.98;;;14.30;67.30;;;;;;5052280;28;20021;-68
2023/12/25 11:58:47;;;;;;;1.05;0.70;;;14.30;67.40;;;;;;5052298;28;20426;-66
2023/12/25 12:01:17;;;;;;;1.42;0.88;;;14.30;66.60;;;;;;5051988;28;20035;-65
2023/12/25 12:03:48;;;;;;;0.90;0.80;;;14.30;66.30;;;;;;5052192;28;20032;-64
2023/12/25 12:06:14;;;;;;;;;;;14.30;66.10;;;;;;5052310;28;20029;-65
2023/12/25 12:08:41;;;;;;;0.95;0.70;;;14.30;65.90;;;;;;5050718;28;19940;-65
2023/12/25 12:11:11;;;;;;;1.52;0.70;;;14.30;65.80;;;;;;5051630;28;20033;-64
2023/12/25 12:13:37;;;;;;;1.17;0.83;;;14.30;65.30;;;;;;5052048;28;20111;-64
2023/12/25 12:16:03;;;;;;;1.42;0.77;;;14.30;64.80;;;;;;5051495;28;20286;-65
2023/12/25 12:18:29;;;;;;;1.40;0.80;;;14.40;65.10;;;;;;5049170;28;20359;-65
2023/12/25 12:20:55;;;;;;;0.95;0.63;;;14.40;64.30;;;;;;5045792;28;20102;-65
2023/12/25 12:23:21;;;;;;;1.10;0.80;;;14.40;64.60;;;;;;5050361;28;20418;-65
2023/12/25 12:25:47;;;;;;;0.55;0.55;;;14.40;64.30;;;;;;5050431;28;20020;-64
2023/12/25 12:28:16;;;;;;;1.00;0.60;;;14.40;64.30;;;;;;5048034;28;20032;-65
2023/12/25 12:30:42;;;;;;;0.90;0.60;;;14.40;64.20;;;;;;5048280;28;20036;-65
2023/12/25 12:33:09;;;;;;;1.27;0.77;;;14.40;64.30;;;;;;5044696;28;20116;-66
2023/12/25 12:35:34;;;;;;;3.47;1.00;;;14.40;63.40;;;;;;5050646;28;20032;-67
2023/12/25 12:38:01;;;;;;;2.88;0.90;;;14.40;63.40;;;;;;5050530;28;20071;-66
2023/12/25 12:40:27;;;;;;;1.48;0.82;;;14.30;63.70;;;;;;5046796;28;20400;-67
2023/12/25 12:42:53;;;;;;;3.45;1.80;;;14.30;63.40;;;;;;5050571;28;20034;-67